Time;durP1;ratioP1;P1;durP2;ratioP2;P2;SDS_P1;SDS_P2;PMS_P1;PMS_P2;Temp;Humidity;BMP_temperature;BMP_pressure;BME280_temperature;BME280_humidity;BME280_pressure;Samples;Min_cycle;Max_cycle;Signal;HPM_P1;HPM_P2
2022/06/25 00:00:28;;;;;;;2.95;2.70;;;23.00;62.30;;;;;;5107230;28;20137;-64
2022/06/25 00:02:54;;;;;;;3.13;2.83;;;22.90;62.30;;;;;;5107949;28;20428;-65
2022/06/25 00:05:28;;;;;;;3.33;2.67;;;22.90;62.20;;;;;;5108156;28;20556;-64
2022/06/25 00:07:58;;;;;;;2.90;2.70;;;22.90;63.00;;;;;;5088389;28;20051;-65
2022/06/25 00:10:25;;;;;;;3.35;3.05;;;22.90;62.30;;;;;;5107704;28;20105;-64
2022/06/25 00:12:50;;;;;;;3.05;2.72;;;22.90;62.30;;;;;;5106112;28;20499;-64
2022/06/25 00:15:17;;;;;;;2.90;2.60;;;22.90;62.30;;;;;;5108094;28;20089;-65
2022/06/25 00:17:43;;;;;;;2.92;2.70;;;22.90;62.30;;;;;;5107195;28;20538;-64
2022/06/25 00:20:09;;;;;;;3.55;2.63;;;22.90;62.30;;;;;;5106842;28;20161;-66
2022/06/25 00:22:35;;;;;;;3.30;2.80;;;22.90;62.30;;;;;;5108507;28;20075;-65
2022/06/25 00:25:01;;;;;;;3.05;2.78;;;22.90;62.30;;;;;;5106678;28;20079;-65
2022/06/25 00:27:27;;;;;;;2.90;2.60;;;22.90;62.30;;;;;;5106800;28;20070;-65
2022/06/25 00:29:52;;;;;;;2.60;2.40;;;22.90;62.30;;;;;;5106280;28;20547;-64
2022/06/25 00:32:18;;;;;;;2.67;2.47;;;22.90;62.30;;;;;;5105008;28;20040;-65
2022/06/25 00:34:44;;;;;;;4.25;3.17;;;22.90;62.30;;;;;;5095965;28;20040;-65
2022/06/25 00:37:10;;;;;;;3.05;2.75;;;22.90;62.30;;;;;;5107372;28;20039;-65
2022/06/25 00:39:36;;;;;;;2.95;2.67;;;22.90;62.30;;;;;;5106924;28;20043;-65
2022/06/25 00:42:07;;;;;;;3.08;2.70;;;22.90;63.00;;;;;;5096089;28;20044;-65
2022/06/25 00:44:33;;;;;;;2.70;2.50;;;22.90;62.30;;;;;;5103579;28;20040;-66
2022/06/25 00:46:59;;;;;;;3.05;2.78;;;22.90;62.30;;;;;;5106301;28;20055;-64
2022/06/25 00:49:24;;;;;;;2.88;2.67;;;22.80;62.20;;;;;;5098442;28;20416;-64
2022/06/25 00:51:52;;;;;;;3.08;2.78;;;22.90;62.30;;;;;;5106636;28;20040;-64
2022/06/25 00:54:21;;;;;;;2.92;2.72;;;22.90;62.30;;;;;;5103341;28;20044;-65
2022/06/25 00:56:50;;;;;;;4.35;2.70;;;22.90;62.30;;;;;;5085817;28;20039;-66
2022/06/25 00:59:21;;;;;;;2.80;2.60;;;22.80;62.20;;;;;;5084967;28;20139;-65
2022/06/25 01:01:46;;;;;;;3.10;2.75;;;22.80;62.30;;;;;;5099799;28;20113;-66
2022/06/25 01:04:12;;;;;;;3.03;2.65;;;22.90;62.30;;;;;;5105632;28;20470;-66
2022/06/25 01:06:37;;;;;;;2.90;2.70;;;22.90;62.30;;;;;;5106919;28;20036;-67
2022/06/25 01:09:03;;;;;;;3.15;2.88;;;22.80;62.30;;;;;;5091633;28;20101;-67
2022/06/25 01:11:29;;;;;;;3.75;2.88;;;22.80;62.20;;;;;;5106910;28;20036;-66
2022/06/25 01:13:55;;;;;;;2.70;2.50;;;22.80;62.30;;;;;;5106750;28;20142;-67
2022/06/25 01:16:21;;;;;;;3.58;2.53;;;22.80;62.20;;;;;;5106743;28;20115;-67
2022/06/25 01:18:47;;;;;;;3.00;2.63;;;22.80;62.20;;;;;;5107222;28;20078;-66
2022/06/25 01:21:13;;;;;;;2.72;2.53;;;22.80;62.30;;;;;;5105780;28;20086;-66
2022/06/25 01:23:40;;;;;;;3.08;2.42;;;22.80;62.20;;;;;;5089144;28;20056;-65
2022/06/25 01:26:05;;;;;;;2.70;2.50;;;22.80;62.30;;;;;;5090754;28;20046;-65
2022/06/25 01:28:31;;;;;;;3.00;2.38;;;22.80;62.30;;;;;;5106539;28;20040;-66
2022/06/25 01:30:56;;;;;;;2.70;2.50;;;22.80;62.20;;;;;;5086570;28;20094;-66
2022/06/25 01:33:22;;;;;;;2.65;2.45;;;22.80;62.20;;;;;;5106342;28;20526;-66
2022/06/25 01:35:47;;;;;;;3.67;2.42;;;22.70;62.10;;;;;;5106192;28;20403;-66
2022/06/25 01:38:14;;;;;;;2.72;2.53;;;22.80;62.20;;;;;;5105435;28;20478;-66
2022/06/25 01:40:39;;;;;;;3.25;2.67;;;22.80;62.20;;;;;;5106242;28;20346;-67
2022/06/25 01:43:05;;;;;;;2.97;2.40;;;22.80;62.20;;;;;;5104413;28;20694;-66
2022/06/25 01:45:35;;;;;;;3.78;2.60;;;22.80;62.20;;;;;;5106206;28;20074;-66
2022/06/25 01:48:01;;;;;;;2.58;2.38;;;22.70;62.20;;;;;;5104768;28;20043;-67
2022/06/25 01:50:27;;;;;;;2.95;2.60;;;22.80;62.20;;;;;;5105823;28;20036;-65
2022/06/25 01:52:54;;;;;;;2.60;2.40;;;22.80;62.20;;;;;;5106003;28;20042;-65
2022/06/25 01:55:20;;;;;;;2.78;2.20;;;22.80;62.20;;;;;;5105712;28;20039;-67
2022/06/25 01:57:47;;;;;;;2.70;2.50;;;22.80;62.20;;;;;;5105254;28;20043;-66
2022/06/25 02:00:19;;;;;;;2.97;2.40;;;22.80;62.20;;;;;;5103892;28;20051;-66
2022/06/25 02:02:45;;;;;;;3.20;2.45;;;22.70;62.10;;;;;;5106163;28;20093;-67
2022/06/25 02:05:13;;;;;;;2.90;2.40;;;22.80;62.20;;;;;;5104603;28;20525;-67
2022/06/25 02:07:39;;;;;;;2.50;2.25;;;22.80;62.20;;;;;;5105678;28;20494;-66
2022/06/25 02:10:06;;;;;;;2.42;2.22;;;22.80;62.20;;;;;;5104236;28;20028;-66
2022/06/25 02:12:31;;;;;;;2.72;2.53;;;22.70;62.20;;;;;;5103852;28;20015;-66
2022/06/25 02:14:57;;;;;;;3.63;2.70;;;22.70;62.10;;;;;;5105630;28;20077;-66
2022/06/25 02:17:23;;;;;;;2.60;2.40;;;22.70;62.10;;;;;;5104230;28;20035;-66
2022/06/25 02:19:49;;;;;;;2.55;2.20;;;22.70;62.10;;;;;;5105278;28;20084;-65
2022/06/25 02:22:15;;;;;;;2.10;2.00;;;22.70;62.10;;;;;;5104491;28;20040;-64
2022/06/25 02:24:44;;;;;;;2.58;2.38;;;22.70;62.10;;;;;;5105806;28;20028;-66
2022/06/25 02:27:11;;;;;;;2.47;2.28;;;22.70;62.10;;;;;;5103693;28;20857;-66
2022/06/25 02:29:37;;;;;;;2.50;2.30;;;22.70;62.20;;;;;;5104757;28;20043;-65
2022/06/25 02:32:03;;;;;;;2.80;2.50;;;22.70;62.10;;;;;;5105375;28;20530;-66
2022/06/25 02:34:29;;;;;;;2.80;2.47;;;22.70;62.20;;;;;;5104373;28;20773;-65
2022/06/25 02:36:54;;;;;;;2.60;2.13;;;22.70;62.10;;;;;;5105410;28;20043;-66
2022/06/25 02:39:20;;;;;;;2.50;2.28;;;22.70;62.20;;;;;;5103748;28;20047;-65
2022/06/25 02:41:46;;;;;;;2.50;2.30;;;22.70;62.10;;;;;;5086196;28;20080;-66
2022/06/25 02:44:11;;;;;;;2.50;2.30;;;22.70;62.10;;;;;;5103939;28;20069;-64
2022/06/25 02:46:37;;;;;;;2.65;2.45;;;22.70;62.10;;;;;;5105212;28;20471;-66
2022/06/25 02:49:03;;;;;;;2.10;2.00;;;22.70;62.10;;;;;;5103892;28;20522;-66
2022/06/25 02:51:29;;;;;;;3.08;2.30;;;22.70;62.10;;;;;;5104432;28;20081;-67
2022/06/25 02:53:55;;;;;;;2.55;2.35;;;22.70;62.10;;;;;;5105945;28;20192;-65
2022/06/25 02:59:06;;;;;;;2.25;2.05;;;22.70;62.20;;;;;;5104899;28;20403;-64
2022/06/25 03:01:32;;;;;;;2.10;1.95;;;22.70;62.10;;;;;;5103827;28;20028;-65
2022/06/25 03:03:57;;;;;;;2.78;2.17;;;22.70;62.10;;;;;;5104859;28;20391;-64
2022/06/25 03:06:24;;;;;;;2.40;2.20;;;22.70;62.10;;;;;;5096487;28;20043;-65
2022/06/25 03:08:49;;;;;;;2.25;2.05;;;22.70;62.20;;;;;;5104166;28;20467;-65
2022/06/25 03:11:16;;;;;;;2.70;2.05;;;22.70;62.10;;;;;;5103943;28;20040;-64
2022/06/25 03:13:42;;;;;;;2.58;2.13;;;22.70;62.10;;;;;;5103621;28;20139;-66
2022/06/25 03:16:08;;;;;;;2.67;2.10;;;22.70;62.10;;;;;;5104865;28;20470;-66
2022/06/25 03:18:35;;;;;;;2.15;2.03;;;22.60;62.10;;;;;;5103559;28;20040;-65
2022/06/25 03:21:01;;;;;;;2.97;2.00;;;22.70;62.10;;;;;;5104601;28;20039;-64
2022/06/25 03:23:27;;;;;;;3.63;2.08;;;22.60;62.10;;;;;;5107619;28;20044;-66
2022/06/25 03:25:52;;;;;;;2.40;2.20;;;22.60;62.10;;;;;;5108644;28;20073;-67
2022/06/25 03:28:18;;;;;;;2.85;2.25;;;22.70;62.10;;;;;;5107932;28;20085;-66
2022/06/25 03:30:44;;;;;;;2.72;2.22;;;22.60;62.10;;;;;;5107441;28;20054;-64
2022/06/25 03:33:09;;;;;;;2.55;2.30;;;22.60;62.10;;;;;;5108934;28;20043;-65
2022/06/25 03:35:35;;;;;;;2.25;2.05;;;22.60;62.10;;;;;;5107959;28;20149;-66
2022/06/25 03:38:01;;;;;;;2.28;2.08;;;22.60;62.10;;;;;;5108590;28;20039;-64
2022/06/25 03:40:26;;;;;;;2.13;1.92;;;22.60;62.10;;;;;;5107164;28;20044;-65
2022/06/25 03:42:52;;;;;;;2.30;1.90;;;22.60;62.10;;;;;;5106191;28;20356;-64
2022/06/25 03:45:17;;;;;;;2.33;2.13;;;22.60;62.10;;;;;;5097118;28;20085;-65
2022/06/25 03:47:50;;;;;;;2.47;2.25;;;22.60;62.10;;;;;;5107440;28;20075;-64
2022/06/25 03:50:21;;;;;;;2.55;2.10;;;22.60;62.10;;;;;;5108353;28;20044;-64
2022/06/25 03:52:48;;;;;;;2.28;2.08;;;22.60;62.10;;;;;;5107558;28;20035;-64
2022/06/25 03:55:14;;;;;;;2.53;1.98;;;22.60;62.80;;;;;;5108533;28;20149;-65
2022/06/25 03:57:40;;;;;;;4.53;2.10;;;22.60;62.10;;;;;;5106356;28;20039;-64
2022/06/25 04:00:07;;;;;;;2.40;2.20;;;22.60;62.00;;;;;;5093842;28;20062;-64
2022/06/25 04:02:33;;;;;;;3.25;2.00;;;22.60;62.10;;;;;;5107926;28;20141;-64
2022/06/25 04:04:59;;;;;;;2.35;2.15;;;22.60;62.10;;;;;;5107908;28;20047;-64
2022/06/25 04:07:25;;;;;;;2.35;2.15;;;22.60;62.00;;;;;;5108033;28;20127;-64
2022/06/25 04:09:50;;;;;;;2.22;2.10;;;22.60;62.00;;;;;;5107184;28;20044;-65
2022/06/25 04:12:16;;;;;;;2.30;2.10;;;22.60;62.10;;;;;;5107189;28;20479;-64
2022/06/25 04:14:41;;;;;;;2.20;2.00;;;22.60;62.00;;;;;;5106920;28;20031;-64
2022/06/25 04:17:07;;;;;;;2.10;2.00;;;22.60;62.00;;;;;;5107812;28;20131;-63
2022/06/25 04:19:40;;;;;;;2.63;2.20;;;22.60;62.10;;;;;;5106647;28;20051;-64
2022/06/25 04:22:10;;;;;;;2.85;1.92;;;22.60;62.00;;;;;;5107528;28;20206;-64
2022/06/25 04:24:38;;;;;;;2.00;1.90;;;22.60;62.10;;;;;;5108065;28;20035;-64
2022/06/25 04:27:04;;;;;;;2.43;2.20;;;22.60;62.00;;;;;;5106086;28;20050;-65
2022/06/25 04:29:30;;;;;;;2.50;2.10;;;22.60;62.10;;;;;;5107008;28;20297;-64
2022/06/25 04:31:56;;;;;;;2.10;1.90;;;22.60;62.10;;;;;;5106574;28;20050;-64
2022/06/25 04:34:22;;;;;;;3.20;2.08;;;22.60;62.10;;;;;;5106415;28;20031;-65
2022/06/25 04:36:48;;;;;;;2.25;2.03;;;22.60;62.10;;;;;;5106503;28;20344;-65
2022/06/25 04:39:13;;;;;;;2.72;2.10;;;22.60;62.00;;;;;;5107049;28;20043;-65
2022/06/25 04:41:39;;;;;;;2.28;2.08;;;22.60;62.00;;;;;;5106673;28;20050;-64
2022/06/25 04:44:05;;;;;;;2.20;2.00;;;22.60;62.00;;;;;;5106734;28;20079;-65
2022/06/25 04:46:30;;;;;;;2.17;1.98;;;22.60;62.10;;;;;;5107598;28;20039;-66
2022/06/25 04:48:57;;;;;;;2.15;1.88;;;22.60;62.00;;;;;;5105850;28;20490;-65
2022/06/25 04:51:23;;;;;;;1.90;1.80;;;22.60;62.00;;;;;;5106834;28;20518;-65
2022/06/25 04:53:55;;;;;;;2.72;1.80;;;22.60;62.10;;;;;;5107331;28;20522;-65
2022/06/25 04:56:28;;;;;;;2.05;1.83;;;22.60;62.00;;;;;;5106773;28;20173;-65
2022/06/25 04:58:55;;;;;;;2.42;2.10;;;22.60;62.00;;;;;;5073921;28;20051;-65
2022/06/25 05:01:21;;;;;;;3.08;2.00;;;22.60;62.00;;;;;;5106249;28;20055;-64
2022/06/25 05:03:47;;;;;;;2.10;2.00;;;22.60;62.00;;;;;;5106787;28;20059;-65
2022/06/25 05:06:13;;;;;;;2.13;1.85;;;22.60;62.00;;;;;;5105658;28;20055;-65
2022/06/25 05:08:39;;;;;;;2.67;2.03;;;22.60;62.00;;;;;;5106805;28;20087;-64
2022/06/25 05:11:05;;;;;;;2.50;1.92;;;22.60;62.00;;;;;;5104852;28;20483;-66
2022/06/25 05:13:30;;;;;;;2.20;2.00;;;22.60;62.00;;;;;;5105683;28;20052;-66
2022/06/25 05:15:56;;;;;;;2.20;1.77;;;22.60;62.00;;;;;;5106182;28;20027;-66
2022/06/25 05:18:22;;;;;;;2.35;2.10;;;22.70;62.00;;;;;;5106134;28;20470;-66
2022/06/25 05:20:47;;;;;;;1.85;1.75;;;22.60;62.10;;;;;;5106203;28;20036;-66
2022/06/25 05:23:13;;;;;;;3.10;1.90;;;22.60;62.00;;;;;;5106051;28;20136;-66
2022/06/25 05:25:40;;;;;;;2.05;1.85;;;22.60;62.10;;;;;;5107109;28;20040;-65
2022/06/25 05:28:06;;;;;;;3.47;2.15;;;22.60;62.10;;;;;;5105047;28;20126;-64
2022/06/25 05:30:33;;;;;;;3.30;1.92;;;22.60;62.10;;;;;;5106266;28;20052;-65
2022/06/25 05:32:59;;;;;;;2.20;2.00;;;22.60;62.10;;;;;;5105337;28;20359;-66
2022/06/25 05:35:25;;;;;;;2.25;1.90;;;22.60;62.10;;;;;;5106461;28;20130;-65
2022/06/25 05:37:50;;;;;;;2.10;1.90;;;22.60;62.10;;;;;;5105839;28;20491;-65
2022/06/25 05:40:16;;;;;;;3.75;2.13;;;22.60;62.00;;;;;;5104822;28;20081;-65
2022/06/25 05:42:41;;;;;;;2.20;2.00;;;22.60;62.00;;;;;;5105428;28;20047;-66
2022/06/25 05:45:08;;;;;;;1.90;1.70;;;22.70;62.10;;;;;;5104811;28;20043;-64
2022/06/25 05:47:33;;;;;;;2.33;2.13;;;22.70;62.00;;;;;;5105989;28;20371;-65
2022/06/25 05:49:59;;;;;;;1.90;1.70;;;22.70;61.90;;;;;;5104444;28;20048;-64
2022/06/25 05:52:25;;;;;;;1.80;1.70;;;22.70;61.80;;;;;;5105959;28;20592;-66
2022/06/25 05:54:51;;;;;;;3.40;1.80;;;22.70;61.70;;;;;;5105497;28;20047;-65
2022/06/25 05:57:17;;;;;;;2.10;1.90;;;22.70;61.70;;;;;;5098940;28;20050;-66
2022/06/25 05:59:42;;;;;;;2.53;1.77;;;22.70;61.90;;;;;;5097199;28;20065;-65
2022/06/25 06:02:08;;;;;;;2.42;1.95;;;22.80;61.90;;;;;;5069348;28;20048;-65
2022/06/25 06:04:34;;;;;;;1.85;1.75;;;22.80;62.00;;;;;;5105824;28;20697;-65
2022/06/25 06:07:00;;;;;;;1.75;1.65;;;22.80;62.10;;;;;;5104284;28;20047;-67
2022/06/25 06:09:27;;;;;;;2.90;1.70;;;22.90;62.10;;;;;;5067703;28;20167;-65
2022/06/25 06:11:54;;;;;;;1.92;1.80;;;22.90;62.10;;;;;;5063263;28;20106;-65
2022/06/25 06:14:21;;;;;;;2.13;1.93;;;22.90;62.10;;;;;;5064919;28;20028;-65
2022/06/25 06:16:46;;;;;;;2.22;1.90;;;23.00;62.20;;;;;;5064501;28;20298;-65
2022/06/25 06:19:12;;;;;;;4.05;2.00;;;23.00;62.20;;;;;;5063361;28;20036;-65
2022/06/25 06:21:37;;;;;;;1.80;1.70;;;23.10;62.20;;;;;;5064891;28;20112;-65
2022/06/25 06:24:03;;;;;;;3.33;1.90;;;23.10;62.20;;;;;;5063968;28;20280;-65
2022/06/25 06:26:29;;;;;;;2.20;1.80;;;23.10;62.20;;;;;;5064098;28;20136;-66
2022/06/25 06:28:54;;;;;;;1.80;1.70;;;23.10;62.20;;;;;;5063367;28;20052;-65
2022/06/25 06:31:20;;;;;;;1.73;1.63;;;23.20;62.20;;;;;;5064324;28;20040;-66
2022/06/25 06:33:45;;;;;;;1.70;1.60;;;23.20;62.20;;;;;;5064192;28;20045;-66
2022/06/25 06:36:12;;;;;;;1.67;1.58;;;23.20;62.20;;;;;;5064557;28;20417;-65
2022/06/25 06:38:38;;;;;;;2.25;1.75;;;23.20;62.10;;;;;;5065241;28;20598;-65
2022/06/25 06:41:04;;;;;;;1.55;1.45;;;23.30;62.20;;;;;;5062698;28;20068;-66
2022/06/25 06:43:29;;;;;;;1.77;1.67;;;23.30;62.20;;;;;;5064132;28;20072;-65
2022/06/25 06:45:55;;;;;;;1.98;1.58;;;23.30;62.10;;;;;;5063417;28;20566;-65
2022/06/25 06:48:21;;;;;;;1.77;1.63;;;23.40;62.10;;;;;;5064196;28;20071;-65
2022/06/25 06:50:46;;;;;;;1.80;1.70;;;23.30;62.10;;;;;;5062793;28;20041;-65
2022/06/25 06:53:12;;;;;;;1.70;1.60;;;23.40;62.10;;;;;;5064913;28;20465;-65
2022/06/25 06:55:37;;;;;;;2.33;1.60;;;23.40;62.10;;;;;;5062445;28;20048;-65
2022/06/25 06:58:03;;;;;;;1.73;1.63;;;23.50;62.10;;;;;;5049896;28;20045;-65
2022/06/25 07:00:28;;;;;;;1.60;1.50;;;23.50;62.00;;;;;;5062458;28;20071;-64
2022/06/25 07:02:54;;;;;;;3.63;1.60;;;23.50;62.00;;;;;;5063091;28;20052;-65
2022/06/25 07:05:19;;;;;;;2.08;1.60;;;23.60;62.00;;;;;;5055949;28;20045;-64
2022/06/25 07:07:47;;;;;;;2.03;1.63;;;23.60;62.00;;;;;;5066162;28;20488;-64
2022/06/25 07:10:13;;;;;;;2.28;1.80;;;23.70;62.00;;;;;;5104241;28;20050;-65
2022/06/25 07:12:39;;;;;;;2.47;1.48;;;23.70;61.90;;;;;;5103192;28;20418;-64
2022/06/25 07:15:05;;;;;;;2.45;1.58;;;23.70;61.90;;;;;;5104630;28;20043;-64
2022/06/25 07:17:31;;;;;;;1.92;1.52;;;23.70;61.90;;;;;;5104448;28;20554;-64
2022/06/25 07:19:58;;;;;;;1.67;1.45;;;23.80;61.80;;;;;;5103146;28;20130;-65
2022/06/25 07:22:23;;;;;;;2.33;1.73;;;23.80;61.70;;;;;;5104634;28;20054;-63
2022/06/25 07:24:51;;;;;;;2.65;1.75;;;23.80;61.70;;;;;;5104024;28;20032;-65
2022/06/25 07:27:17;;;;;;;2.92;1.70;;;23.90;61.70;;;;;;5103908;28;20051;-65
2022/06/25 07:29:43;;;;;;;1.75;1.48;;;23.90;61.60;;;;;;5103749;28;20488;-65
2022/06/25 07:32:09;;;;;;;2.70;1.60;;;23.90;61.60;;;;;;5104588;28;20046;-66
2022/06/25 07:34:35;;;;;;;1.70;1.60;;;23.90;61.50;;;;;;5104142;28;20047;-65
2022/06/25 07:37:01;;;;;;;1.60;1.35;;;24.00;61.50;;;;;;5103906;28;20032;-65
2022/06/25 07:39:27;;;;;;;2.72;1.30;;;24.00;62.30;;;;;;5104932;28;20065;-65
2022/06/25 07:41:53;;;;;;;2.08;1.58;;;24.00;61.50;;;;;;5103156;28;20104;-65
2022/06/25 07:44:19;;;;;;;1.65;1.55;;;24.00;61.40;;;;;;5104605;28;20049;-64
2022/06/25 07:46:44;;;;;;;3.78;1.40;;;24.10;61.40;;;;;;5103261;28;20032;-65
2022/06/25 07:49:10;;;;;;;1.50;1.40;;;24.10;61.40;;;;;;5103662;28;20097;-65
2022/06/25 07:54:20;;;;;;;1.85;1.38;;;24.10;61.30;;;;;;5104001;28;20043;-65
2022/06/25 07:56:46;;;;;;;2.95;1.60;;;24.20;61.30;;;;;;5101788;28;20032;-65
2022/06/25 07:59:12;;;;;;;2.58;1.30;;;24.20;61.20;;;;;;5090038;28;20028;-65
2022/06/25 08:01:38;;;;;;;1.88;1.30;;;24.20;61.10;;;;;;5104608;28;20032;-65
2022/06/25 08:04:03;;;;;;;1.70;1.60;;;24.20;61.10;;;;;;5084564;28;20058;-65
2022/06/25 08:06:29;;;;;;;1.58;1.45;;;24.30;61.10;;;;;;5104248;28;20055;-66
2022/06/25 08:08:54;;;;;;;1.42;1.33;;;24.30;61.10;;;;;;5105315;28;20143;-66
2022/06/25 08:11:20;;;;;;;3.70;1.50;;;24.30;60.90;;;;;;5106512;28;20479;-65
2022/06/25 08:13:46;;;;;;;1.50;1.30;;;24.30;60.90;;;;;;5107910;28;20047;-65
2022/06/25 08:16:11;;;;;;;1.60;1.45;;;24.30;60.90;;;;;;5106432;28;20168;-66
2022/06/25 08:18:38;;;;;;;2.35;1.40;;;24.30;60.80;;;;;;5107725;28;20047;-64
2022/06/25 08:21:05;;;;;;;1.35;1.20;;;24.40;60.80;;;;;;5106052;28;20126;-64
2022/06/25 08:23:30;;;;;;;2.85;1.33;;;24.40;60.70;;;;;;5108434;28;20040;-64
2022/06/25 08:25:56;;;;;;;1.67;1.35;;;24.40;60.70;;;;;;5088122;28;20384;-65
2022/06/25 08:28:23;;;;;;;1.73;1.35;;;24.40;60.60;;;;;;5106569;28;20036;-65
2022/06/25 08:30:49;;;;;;;2.90;1.42;;;24.50;60.70;;;;;;5106524;28;20489;-64
2022/06/25 08:33:14;;;;;;;2.00;1.27;;;24.50;60.60;;;;;;5106421;28;20498;-64
2022/06/25 08:35:41;;;;;;;1.50;1.30;;;24.50;60.50;;;;;;5088859;28;20460;-65
2022/06/25 08:38:07;;;;;;;1.55;1.40;;;24.50;60.50;;;;;;5105946;28;20475;-65
2022/06/25 08:40:33;;;;;;;1.33;1.15;;;24.50;60.40;;;;;;5106960;28;20058;-65
2022/06/25 08:42:59;;;;;;;2.75;1.50;;;24.50;60.30;;;;;;5105005;28;20043;-65
2022/06/25 08:45:25;;;;;;;2.85;1.50;;;24.50;60.30;;;;;;5107036;28;20089;-65
2022/06/25 08:47:53;;;;;;;1.35;1.17;;;24.50;60.30;;;;;;5087623;28;20043;-66
2022/06/25 08:50:21;;;;;;;1.43;1.27;;;24.50;60.20;;;;;;5106239;28;20035;-65
2022/06/25 08:52:49;;;;;;;2.03;1.40;;;24.50;60.20;;;;;;5106674;28;20752;-66
2022/06/25 08:55:20;;;;;;;;;;;24.60;60.20;;;;;;5107192;28;20043;-66
2022/06/25 08:57:46;;;;;;;1.83;1.33;;;24.50;60.00;;;;;;5095795;28;19935;-64
2022/06/25 09:00:12;;;;;;;2.20;1.55;;;24.50;60.20;;;;;;5100883;28;20405;-66
2022/06/25 09:02:39;;;;;;;2.47;1.20;;;24.50;60.10;;;;;;5122517;27;20474;-65
2022/06/25 09:05:08;;;;;;;1.48;1.15;;;24.50;60.10;;;;;;5097799;28;20097;-65
2022/06/25 09:07:34;;;;;;;2.03;1.50;;;24.50;60.00;;;;;;5106149;28;20031;-64
2022/06/25 09:09:59;;;;;;;1.77;1.33;;;24.50;60.00;;;;;;5106284;28;20119;-63
2022/06/25 09:12:25;;;;;;;2.42;1.40;;;24.50;60.00;;;;;;5104512;28;20135;-65
2022/06/25 09:14:50;;;;;;;2.40;1.50;;;24.50;60.00;;;;;;5106747;28;20048;-65
2022/06/25 09:17:16;;;;;;;1.73;1.20;;;24.50;60.00;;;;;;5105408;28;20050;-66
2022/06/25 09:19:50;;;;;;;4.00;1.60;;;24.50;60.00;;;;;;5105593;28;20127;-66
2022/06/25 09:22:18;;;;;;;1.73;1.30;;;24.50;60.00;;;;;;5105477;28;20518;-64
2022/06/25 09:24:55;;;;;;;;;;;24.50;59.90;;;;;;5107439;28;20054;-63
2022/06/25 09:27:38;;;;;;;1.65;1.40;;;24.50;59.80;;;;;;5086811;28;19963;-64
2022/06/25 09:30:11;;;;;;;1.70;1.27;;;24.50;59.90;;;;;;5105825;28;20055;-64
2022/06/25 09:32:44;;;;;;;1.77;1.30;;;24.50;59.90;;;;;;5087552;28;20376;-65
2022/06/25 09:35:11;;;;;;;3.25;1.40;;;24.50;59.80;;;;;;5105679;28;20085;-66
2022/06/25 09:37:36;;;;;;;1.38;1.20;;;24.50;59.90;;;;;;5106518;28;21094;-65
2022/06/25 09:40:04;;;;;;;1.33;1.15;;;24.50;59.90;;;;;;5106538;28;20051;-66
2022/06/25 09:42:32;;;;;;;3.53;1.30;;;24.50;59.80;;;;;;5090328;28;20028;-65
2022/06/25 09:45:04;;;;;;;;;;;24.60;59.80;;;;;;5097943;28;20046;-64
2022/06/25 09:47:33;;;;;;;2.08;1.20;;;24.50;59.80;;;;;;5102612;28;19967;-65
2022/06/25 09:50:14;;;;;;;1.35;1.20;;;24.50;60.50;;;;;;5105485;28;20134;-65
2022/06/25 09:52:53;;;;;;;2.45;1.40;;;24.50;60.50;;;;;;5104864;28;20594;-65
2022/06/25 09:55:21;;;;;;;2.05;1.10;;;24.60;59.80;;;;;;5093316;28;20066;-65
2022/06/25 09:57:48;;;;;;;1.45;1.20;;;24.50;59.70;;;;;;5095007;28;20413;-65
2022/06/25 10:00:17;;;;;;;1.40;1.20;;;24.50;59.70;;;;;;5095828;28;20055;-65
2022/06/25 10:02:45;;;;;;;2.45;1.20;;;24.60;59.70;;;;;;5106404;28;20326;-65
2022/06/25 10:05:12;;;;;;;1.50;1.30;;;24.60;59.70;;;;;;5104935;28;20044;-65
2022/06/25 10:10:26;;;;;;;1.98;1.40;;;24.50;59.60;;;;;;5104956;28;20051;-64
2022/06/25 10:12:52;;;;;;;1.80;1.20;;;24.60;59.70;;;;;;5104067;28;20055;-64
2022/06/25 10:15:19;;;;;;;1.33;1.00;;;24.60;59.70;;;;;;5105903;28;21180;-64
2022/06/25 10:17:49;;;;;;;1.23;1.10;;;24.60;59.60;;;;;;5104408;28;20559;-65
2022/06/25 10:20:16;;;;;;;1.20;1.00;;;24.60;59.60;;;;;;5086601;28;20058;-64
2022/06/25 10:22:43;;;;;;;4.43;1.38;;;24.60;59.60;;;;;;5104487;28;20409;-64
2022/06/25 10:25:15;;;;;;;2.73;1.47;;;24.60;59.50;;;;;;5105931;28;21964;-65
2022/06/25 10:27:42;;;;;;;1.25;1.10;;;24.70;59.50;;;;;;5085602;28;20044;-64
2022/06/25 10:30:09;;;;;;;2.42;1.08;;;24.60;60.20;;;;;;5103581;28;20043;-64
2022/06/25 10:32:55;;;;;;;1.67;1.05;;;24.60;59.50;;;;;;5104403;28;20036;-64
2022/06/25 10:35:29;;;;;;;1.40;1.10;;;24.60;59.40;;;;;;5104276;28;20070;-64
2022/06/25 10:38:07;;;;;;;2.45;1.10;;;24.60;59.40;;;;;;5105006;28;20066;-65
2022/06/25 10:40:44;;;;;;;1.08;0.90;;;24.60;59.40;;;;;;5104248;28;20498;-66
2022/06/25 10:43:42;;;;;;;1.77;1.02;;;24.60;59.50;;;;;;5103357;28;20039;-65
2022/06/25 10:46:25;;;;;;;2.17;1.30;;;24.60;59.30;;;;;;5105014;28;20043;-65
2022/06/25 10:48:51;;;;;;;2.35;1.20;;;24.70;59.40;;;;;;5104085;28;20122;-65
2022/06/25 10:51:40;;;;;;;1.13;1.02;;;24.70;59.40;;;;;;5104322;28;20129;-64
2022/06/25 10:54:11;;;;;;;2.40;1.48;;;24.60;59.20;;;;;;5087719;28;20059;-64
2022/06/25 10:56:51;;;;;;;1.65;1.15;;;24.60;59.30;;;;;;5103585;28;20032;-67
2022/06/25 10:59:32;;;;;;;2.40;1.00;;;24.70;59.20;;;;;;5092729;28;20044;-65
2022/06/25 11:01:59;;;;;;;1.98;0.90;;;24.70;59.30;;;;;;5104907;28;20124;-65
2022/06/25 11:04:27;;;;;;;1.95;1.20;;;24.70;59.30;;;;;;5104448;28;20043;-65
2022/06/25 11:06:52;;;;;;;1.30;1.20;;;24.70;59.20;;;;;;5086608;28;20083;-65
2022/06/25 11:09:19;;;;;;;2.00;1.05;;;24.70;59.20;;;;;;5102652;28;20136;-65
2022/06/25 11:11:47;;;;;;;1.25;1.15;;;24.70;59.20;;;;;;5104602;28;20048;-64
2022/06/25 11:14:22;;;;;;;2.75;1.05;;;24.70;59.20;;;;;;5102676;28;20036;-65
2022/06/25 11:16:48;;;;;;;1.25;1.13;;;24.70;59.20;;;;;;5104582;28;20058;-65
2022/06/25 11:19:14;;;;;;;1.30;1.15;;;24.70;59.20;;;;;;5103245;28;20487;-64
2022/06/25 11:21:42;;;;;;;1.45;1.00;;;24.70;59.20;;;;;;5104363;28;20059;-64
2022/06/25 11:24:15;;;;;;;1.27;1.17;;;24.70;59.20;;;;;;5104767;28;20092;-65
2022/06/25 11:29:35;;;;;;;3.33;0.95;;;24.70;59.30;;;;;;5103167;28;20040;-65
2022/06/25 11:32:01;;;;;;;1.85;1.02;;;24.70;59.30;;;;;;5103759;28;20044;-65
2022/06/25 11:34:28;;;;;;;1.85;1.02;;;24.70;59.30;;;;;;5104206;28;20039;-65
2022/06/25 11:36:59;;;;;;;1.15;1.00;;;24.80;59.40;;;;;;5085896;28;20131;-65
2022/06/25 11:39:25;;;;;;;1.63;1.13;;;24.80;59.30;;;;;;5102649;28;20031;-65
2022/06/25 11:41:53;;;;;;;1.25;1.10;;;24.90;59.20;;;;;;5104402;28;20058;-65
2022/06/25 11:44:19;;;;;;;1.58;0.90;;;24.90;59.00;;;;;;5105366;28;20521;-65
2022/06/25 11:46:47;;;;;;;2.35;1.00;;;24.80;58.80;;;;;;5108375;28;20538;-65
2022/06/25 11:49:13;;;;;;;2.15;1.17;;;24.80;58.80;;;;;;5106896;28;20035;-66
2022/06/25 11:51:50;;;;;;;1.50;0.90;;;24.90;58.80;;;;;;5108085;28;20190;-64
2022/06/25 11:54:20;;;;;;;1.67;1.00;;;25.00;58.40;;;;;;5108889;28;20443;-64
2022/06/25 11:56:50;;;;;;;1.60;0.90;;;25.00;58.30;;;;;;5105061;28;20520;-65
2022/06/25 11:59:31;;;;;;;2.72;1.33;;;25.00;58.10;;;;;;5095197;28;20236;-65
2022/06/25 12:01:59;;;;;;;1.73;1.08;;;25.10;58.10;;;;;;5106788;28;20051;-65
2022/06/25 12:04:26;;;;;;;2.97;1.17;;;25.10;58.00;;;;;;5108160;28;20048;-65
2022/06/25 12:06:53;;;;;;;1.20;1.10;;;25.10;58.80;;;;;;5107274;28;20449;-65
2022/06/25 12:09:20;;;;;;;2.35;0.90;;;25.10;58.00;;;;;;5103478;28;20059;-64
2022/06/25 12:11:53;;;;;;;1.27;1.08;;;25.00;58.10;;;;;;5089283;28;20139;-66
2022/06/25 12:14:28;;;;;;;1.15;1.00;;;25.00;58.10;;;;;;5106206;28;20231;-65
2022/06/25 12:16:55;;;;;;;1.38;1.10;;;24.90;58.10;;;;;;5107790;28;20055;-65
2022/06/25 12:19:21;;;;;;;1.23;1.00;;;24.90;58.10;;;;;;5106258;28;20443;-64
2022/06/25 12:21:48;;;;;;;1.52;1.00;;;24.90;58.00;;;;;;5089330;28;20039;-65
2022/06/25 12:24:16;;;;;;;1.75;1.05;;;24.90;58.10;;;;;;5089580;28;20431;-66
2022/06/25 12:26:51;;;;;;;1.25;1.00;;;24.80;58.00;;;;;;5088140;28;20511;-66
2022/06/25 12:29:22;;;;;;;1.10;1.00;;;24.80;58.10;;;;;;5106221;28;20128;-66
2022/06/25 12:31:54;;;;;;;2.10;1.15;;;24.80;58.30;;;;;;5106818;28;20078;-66
2022/06/25 12:34:20;;;;;;;1.63;1.00;;;24.70;58.30;;;;;;5107812;28;20063;-65
2022/06/25 12:36:48;;;;;;;1.35;0.90;;;24.70;58.40;;;;;;5106646;28;20067;-65
2022/06/25 12:39:43;;;;;;;1.75;0.82;;;24.60;58.40;;;;;;5106493;28;20051;-65
2022/06/25 12:42:13;;;;;;;1.48;0.90;;;24.70;58.60;;;;;;5107435;28;20040;-65
2022/06/25 12:44:41;;;;;;;1.00;0.90;;;24.70;58.60;;;;;;5105437;28;20032;-64
2022/06/25 12:47:11;;;;;;;3.35;1.30;;;24.60;58.60;;;;;;5107437;28;20356;-66
2022/06/25 12:49:39;;;;;;;1.38;0.90;;;24.50;58.60;;;;;;5105657;28;20036;-65
2022/06/25 12:52:05;;;;;;;2.28;0.93;;;24.50;58.70;;;;;;5107043;28;20127;-65
2022/06/25 12:54:42;;;;;;;1.00;0.90;;;24.50;58.70;;;;;;5106293;28;20114;-65
2022/06/25 12:57:07;;;;;;;1.58;1.20;;;24.50;58.80;;;;;;5082771;28;20083;-65
2022/06/25 12:59:33;;;;;;;1.67;0.98;;;24.50;58.90;;;;;;5085835;28;20115;-65